Time;durP1;ratioP1;P1;durP2;ratioP2;P2;SDS_P1;SDS_P2;PMS_P1;PMS_P2;Temp;Humidity;BMP_temperature;BMP_pressure;BME280_temperature;BME280_humidity;BME280_pressure;Samples;Min_cycle;Max_cycle;Signal;HPM_P1;HPM_P2
2023/05/13 00:01:22;;;;;;;9.85;6.40;;;;;;;9.90;100.00;93746.28;4804009;29;20043;-62
2023/05/13 00:03:48;;;;;;;9.00;6.43;;;;;;;10.06;100.00;93746.44;4787688;29;20110;-61
2023/05/13 00:06:15;;;;;;;13.13;7.10;;;;;;;10.11;100.00;93747.91;4803991;29;20389;-59
2023/05/13 00:08:42;;;;;;;9.95;6.55;;;;;;;10.18;100.00;93743.09;4803632;29;20055;-59
2023/05/13 00:11:09;;;;;;;12.43;7.50;;;;;;;9.87;100.00;93745.13;4803419;29;20038;-60
2023/05/13 00:13:36;;;;;;;9.90;7.05;;;;;;;9.95;100.00;93751.28;4787865;29;20107;-63
2023/05/13 00:16:03;;;;;;;10.05;6.40;;;;;;;9.84;100.00;93739.72;4803405;29;20051;-60
2023/05/13 00:18:30;;;;;;;9.17;6.37;;;;;;;9.91;100.00;93742.34;4803935;29;20070;-59
2023/05/13 00:20:56;;;;;;;10.70;6.88;;;;;;;9.97;100.00;93748.91;4803095;29;20535;-59
2023/05/13 00:23:23;;;;;;;8.80;6.30;;;;;;;10.03;100.00;93746.47;4799431;29;20039;-59
2023/05/13 00:25:50;;;;;;;8.95;5.60;;;;;;;10.11;100.00;93745.16;4797807;29;20444;-59
2023/05/13 00:28:16;;;;;;;9.32;5.88;;;;;;;10.16;100.00;93747.41;4803028;29;20043;-59
2023/05/13 00:30:44;;;;;;;8.77;5.83;;;;;;;10.17;100.00;93751.72;4802529;29;20501;-60
2023/05/13 00:33:11;;;;;;;9.25;5.70;;;;;;;10.16;100.00;93752.91;4803155;29;20047;-60
2023/05/13 00:35:38;;;;;;;8.27;5.50;;;;;;;9.96;100.00;93748.16;4802654;29;20063;-59
2023/05/13 00:38:05;;;;;;;11.95;5.65;;;;;;;10.05;100.00;93744.09;4786701;29;20054;-59
2023/05/13 00:40:36;;;;;;;8.35;5.30;;;;;;;10.12;100.00;93747.50;4786466;29;20498;-60
2023/05/13 00:43:02;;;;;;;10.00;5.60;;;;;;;10.17;100.00;93749.75;4802638;29;20374;-59
2023/05/13 00:45:29;;;;;;;7.75;5.38;;;;;;;10.28;100.00;93751.53;4802559;29;20054;-60
2023/05/13 00:47:58;;;;;;;8.23;5.65;;;;;;;10.31;100.00;93746.03;4802098;29;20050;-62
2023/05/13 00:50:25;;;;;;;9.95;6.60;;;;;;;10.36;100.00;93747.50;4786631;29;20070;-60
2023/05/13 00:52:52;;;;;;;10.23;6.20;;;;;;;10.32;100.00;93746.81;4802031;29;20062;-60
2023/05/13 00:55:20;;;;;;;9.00;5.33;;;;;;;10.31;100.00;93750.75;4802740;29;20057;-59
2023/05/13 00:57:46;;;;;;;8.55;5.70;;;;;;;10.29;100.00;93748.38;4802120;29;20112;-59
2023/05/13 01:00:14;;;;;;;8.95;6.15;;;;;;;10.16;100.00;93744.69;4786230;29;20099;-59
2023/05/13 01:03:07;;;;;;;10.23;6.30;;;;;;;10.23;100.00;93749.28;4801764;29;20462;-59
2023/05/13 01:05:39;;;;;;;9.20;6.03;;;;;;;10.26;100.00;93746.50;4802073;29;20146;-59
2023/05/13 01:08:19;;;;;;;9.30;6.23;;;;;;;10.28;100.00;93746.84;4801422;29;20961;-59
2023/05/13 01:10:49;;;;;;;9.98;6.60;;;;;;;10.08;100.00;93749.53;4801773;29;20507;-59
2023/05/13 01:13:29;;;;;;;10.63;6.22;;;;;;;9.95;100.00;93743.84;4802335;29;20529;-60
2023/05/13 01:16:05;;;;;;;9.38;6.25;;;;;;;10.14;100.00;93744.31;4774796;29;20050;-59
2023/05/13 01:18:43;;;;;;;9.40;6.30;;;;;;;10.01;100.00;93746.88;4801968;29;20383;-61
2023/05/13 01:21:11;;;;;;;9.20;5.97;;;;;;;9.94;100.00;93747.00;4801362;29;20111;-62
2023/05/13 01:23:38;;;;;;;9.50;6.40;;;;;;;9.88;100.00;93743.97;4800658;29;20047;-62
2023/05/13 01:26:04;;;;;;;9.82;6.47;;;;;;;9.87;100.00;93742.41;4802372;29;20130;-60
2023/05/13 01:28:31;;;;;;;12.70;7.70;;;;;;;9.63;100.00;93743.56;4802517;29;20055;-59
2023/05/13 01:30:58;;;;;;;10.98;7.32;;;;;;;9.63;100.00;93746.28;4801889;29;20394;-60
2023/05/13 01:33:25;;;;;;;10.57;7.10;;;;;;;9.90;100.00;93747.06;4786328;29;20058;-60
2023/05/13 01:35:52;;;;;;;10.50;6.88;;;;;;;9.82;100.00;93745.63;4801569;29;20123;-62
2023/05/13 01:38:20;;;;;;;9.23;6.30;;;;;;;9.92;100.00;93746.63;4802445;29;20054;-62
2023/05/13 01:40:47;;;;;;;9.57;6.57;;;;;;;10.06;100.00;93745.63;4801526;29;20053;-62
2023/05/13 01:43:14;;;;;;;9.13;6.82;;;;;;;9.92;100.00;93747.44;4802546;29;20502;-59
2023/05/13 01:45:40;;;;;;;10.87;7.90;;;;;;;9.57;100.00;93754.19;4785501;29;20058;-59
2023/05/13 01:48:07;;;;;;;9.73;6.70;;;;;;;9.66;100.00;93753.66;4801787;29;20386;-61
2023/05/13 01:50:34;;;;;;;11.43;7.40;;;;;;;9.84;100.00;93745.19;4802191;29;20055;-60
2023/05/13 01:53:01;;;;;;;12.20;7.38;;;;;;;9.55;100.00;93742.88;4801837;29;20063;-59
2023/05/13 01:55:27;;;;;;;11.90;6.97;;;;;;;9.70;100.00;93752.44;4802225;29;20051;-61
2023/05/13 01:57:54;;;;;;;12.07;7.70;;;;;;;9.62;100.00;93750.22;4801698;29;20103;-62
2023/05/13 02:00:21;;;;;;;11.35;7.20;;;;;;;9.63;100.00;93755.28;4786071;29;20112;-60
2023/05/13 02:02:48;;;;;;;11.02;7.35;;;;;;;9.53;100.00;93754.25;4801413;29;20066;-60
2023/05/13 02:05:15;;;;;;;11.40;7.50;;;;;;;9.50;100.00;93746.09;4802361;29;20043;-59
2023/05/13 02:07:42;;;;;;;11.95;7.25;;;;;;;9.60;100.00;93747.91;4801593;29;20043;-60
2023/05/13 02:10:09;;;;;;;12.13;8.27;;;;;;;9.29;100.00;93758.88;4785875;29;20061;-59
2023/05/13 02:12:36;;;;;;;11.25;7.45;;;;;;;9.39;100.00;93757.94;4801732;29;20043;-59
2023/05/13 02:15:03;;;;;;;10.80;7.07;;;;;;;9.60;100.00;93754.16;4801676;29;20484;-60
2023/05/13 02:17:29;;;;;;;11.43;7.32;;;;;;;9.65;100.00;93755.66;4801772;29;20055;-61
2023/05/13 02:19:57;;;;;;;12.68;8.10;;;;;;;9.58;100.00;93758.50;4801130;29;20573;-59
2023/05/13 02:22:23;;;;;;;11.57;7.83;;;;;;;9.38;100.00;93752.91;4802144;29;20099;-62
2023/05/13 02:24:50;;;;;;;13.68;8.32;;;;;;;9.40;100.00;93756.00;4799201;29;20499;-59
2023/05/13 02:27:17;;;;;;;14.05;8.52;;;;;;;9.20;100.00;93756.63;4801641;29;20083;-59
2023/05/13 02:29:44;;;;;;;13.02;8.65;;;;;;;9.29;100.00;93758.88;4796437;29;20048;-61
2023/05/13 02:32:10;;;;;;;15.30;9.05;;;;;;;9.07;100.00;93758.34;4778685;29;20043;-59
2023/05/13 02:34:37;;;;;;;15.77;10.60;;;;;;;8.83;100.00;93768.41;4801065;29;20059;-60
2023/05/13 02:37:04;;;;;;;16.30;9.63;;;;;;;8.72;100.00;93770.50;4800462;29;20055;-61
2023/05/13 02:39:31;;;;;;;17.55;11.27;;;;;;;8.64;100.00;93755.34;4801302;29;20058;-59
2023/05/13 02:41:58;;;;;;;17.17;10.02;;;;;;;8.59;100.00;93765.53;4800177;29;20051;-59
2023/05/13 02:44:25;;;;;;;16.60;10.38;;;;;;;8.63;100.00;93768.22;4801250;29;20110;-62
2023/05/13 02:46:52;;;;;;;17.37;10.30;;;;;;;8.66;100.00;93761.94;4800926;29;20059;-61
2023/05/13 02:49:18;;;;;;;16.15;9.32;;;;;;;8.76;100.00;93758.31;4804897;29;20065;-60
2023/05/13 02:51:45;;;;;;;15.68;9.50;;;;;;;8.86;100.00;93755.88;4788018;29;20099;-59
2023/05/13 02:54:12;;;;;;;15.05;8.77;;;;;;;8.98;100.00;93756.13;4788293;29;20061;-59
2023/05/13 02:56:38;;;;;;;13.52;8.65;;;;;;;9.06;100.00;93754.09;4804615;29;20250;-60
2023/05/13 02:59:05;;;;;;;14.00;8.57;;;;;;;9.01;100.00;93749.03;4804263;29;20051;-60
2023/05/13 03:01:32;;;;;;;14.63;8.57;;;;;;;9.31;100.00;93747.50;4804941;29;20486;-59
2023/05/13 03:03:59;;;;;;;13.43;8.63;;;;;;;9.39;100.00;93752.47;4803984;29;20055;-60
2023/05/13 03:06:26;;;;;;;14.55;8.43;;;;;;;9.50;100.00;93743.34;4804879;29;20167;-59
2023/05/13 03:08:52;;;;;;;14.63;8.73;;;;;;;9.51;100.00;93748.41;4803481;29;20055;-59
2023/05/13 03:11:20;;;;;;;18.97;12.00;;;;;;;9.57;100.00;93754.97;4804465;29;20393;-61
2023/05/13 03:13:46;;;;;;;38.75;20.80;;;;;;;9.59;100.00;93744.38;4803977;29;20059;-62
2023/05/13 03:16:13;;;;;;;16.17;10.02;;;;;;;9.54;100.00;93750.31;4804416;29;20051;-60
2023/05/13 03:18:40;;;;;;;13.60;8.10;;;;;;;9.40;100.00;93748.56;4804186;29;20049;-59
2023/05/13 03:21:07;;;;;;;13.38;8.50;;;;;;;9.39;100.00;93757.94;4803023;29;20864;-59
2023/05/13 03:23:33;;;;;;;12.93;8.10;;;;;;;9.37;100.00;93756.81;4804177;29;20046;-60
2023/05/13 03:26:01;;;;;;;13.98;8.32;;;;;;;9.44;100.00;93756.72;4803491;29;20046;-59
2023/05/13 03:28:27;;;;;;;15.63;9.05;;;;;;;9.04;100.00;93764.66;4804193;29;20115;-60
2023/05/13 03:30:54;;;;;;;15.88;9.68;;;;;;;8.86;100.00;93766.84;4803596;29;20550;-60
2023/05/13 03:33:21;;;;;;;15.80;9.65;;;;;;;8.78;100.00;93766.91;4788109;29;20083;-59
2023/05/13 03:35:48;;;;;;;16.33;9.73;;;;;;;8.96;100.00;93771.41;4803247;29;20103;-60
2023/05/13 03:38:15;;;;;;;15.07;8.75;;;;;;;9.15;100.00;93768.03;4803878;29;20065;-59
2023/05/13 03:40:42;;;;;;;15.63;9.20;;;;;;;9.08;100.00;93768.13;4803069;29;20119;-59
2023/05/13 03:43:08;;;;;;;14.82;9.48;;;;;;;9.00;100.00;93772.13;4804187;29;20050;-63
2023/05/13 03:45:35;;;;;;;15.52;8.98;;;;;;;9.25;100.00;93769.09;4803690;29;20046;-60
2023/05/13 03:48:02;;;;;;;15.93;9.03;;;;;;;9.40;100.00;93762.25;4786832;29;20047;-59
2023/05/13 03:50:29;;;;;;;14.77;9.52;;;;;;;9.19;100.00;93765.25;4803430;29;20062;-59
2023/05/13 03:52:55;;;;;;;14.73;8.38;;;;;;;9.29;100.00;93769.03;4803176;29;20055;-60
2023/05/13 03:55:22;;;;;;;14.52;8.90;;;;;;;9.39;100.00;93760.69;4803732;29;20051;-61
2023/05/13 03:57:49;;;;;;;13.38;8.20;;;;;;;9.55;100.00;93767.53;4803027;29;20066;-63
2023/05/13 04:00:16;;;;;;;15.87;8.60;;;;;;;9.49;100.00;93763.69;4804050;29;20120;-61
2023/05/13 04:02:43;;;;;;;15.07;8.95;;;;;;;9.55;100.00;93773.78;4803004;29;20043;-61
2023/05/13 04:05:12;;;;;;;15.52;9.10;;;;;;;9.17;100.00;93764.88;4803359;29;20051;-62
2023/05/13 04:07:39;;;;;;;13.85;8.70;;;;;;;9.29;100.00;93769.03;4792239;29;20047;-61
2023/05/13 04:10:09;;;;;;;14.38;9.20;;;;;;;9.23;100.00;93767.97;4802586;29;20738;-61
2023/05/13 04:12:39;;;;;;;14.93;9.23;;;;;;;9.34;100.00;93768.59;4803603;29;20057;-64
2023/05/13 04:15:07;;;;;;;13.85;8.90;;;;;;;9.53;100.00;93770.69;4802879;29;21169;-61
2023/05/13 04:17:33;;;;;;;13.50;8.80;;;;;;;9.62;100.00;93772.13;4801982;29;20043;-59
2023/05/13 04:20:00;;;;;;;14.45;9.38;;;;;;;9.53;100.00;93770.69;4801919;29;20055;-59
2023/05/13 04:22:27;;;;;;;15.77;9.45;;;;;;;9.53;100.00;93778.91;4803329;29;20039;-61
2023/05/13 04:24:55;;;;;;;13.67;9.40;;;;;;;9.50;100.00;93777.00;4802667;29;20051;-60
2023/05/13 04:27:23;;;;;;;14.50;9.15;;;;;;;9.54;100.00;93783.19;4803040;29;20424;-59
2023/05/13 04:29:50;;;;;;;15.15;9.93;;;;;;;9.37;100.00;93779.50;4802614;29;20061;-60
2023/05/13 04:32:20;;;;;;;14.15;9.20;;;;;;;9.39;100.00;93790.81;4802932;29;20054;-59
2023/05/13 04:34:48;;;;;;;15.55;10.05;;;;;;;9.14;100.00;93788.41;4802302;29;20077;-60
2023/05/13 04:37:15;;;;;;;14.73;10.20;;;;;;;9.03;100.00;93793.22;4803046;29;20099;-61
2023/05/13 04:39:45;;;;;;;17.27;10.73;;;;;;;8.87;100.00;93801.22;4802628;29;20057;-59
2023/05/13 04:42:13;;;;;;;17.58;11.32;;;;;;;8.87;100.00;93801.22;4803221;29;20107;-59
2023/05/13 04:44:40;;;;;;;18.15;11.32;;;;;;;8.75;100.00;93805.25;4802614;29;20050;-62
2023/05/13 04:47:07;;;;;;;16.42;10.70;;;;;;;8.89;100.00;93810.56;4802170;29;20043;-59
2023/05/13 04:49:33;;;;;;;17.10;10.60;;;;;;;9.01;100.00;93812.00;4802823;29;20443;-59
2023/05/13 04:52:02;;;;;;;16.10;10.75;;;;;;;9.18;100.00;93815.75;4786038;29;20173;-61
2023/05/13 04:54:29;;;;;;;19.00;10.75;;;;;;;9.10;100.00;93814.28;4802996;29;20050;-63
2023/05/13 04:56:55;;;;;;;16.38;10.10;;;;;;;9.29;100.00;93815.59;4801987;29;20065;-59
2023/05/13 04:59:22;;;;;;;14.57;9.40;;;;;;;9.54;100.00;93815.31;4802819;29;20071;-60
2023/05/13 05:01:49;;;;;;;14.90;9.77;;;;;;;9.61;100.00;93815.19;4801637;29;20050;-60
2023/05/13 05:04:16;;;;;;;15.35;9.75;;;;;;;9.77;100.00;93812.63;4802823;29;20052;-59
2023/05/13 05:06:42;;;;;;;16.65;10.50;;;;;;;9.89;100.00;93813.25;4786049;29;20078;-59
2023/05/13 05:09:09;;;;;;;20.13;12.35;;;;;;;9.85;100.00;93812.53;4802159;29;20083;-62
2023/05/13 05:11:37;;;;;;;22.52;13.40;;;;;;;9.72;100.00;93815.06;4802104;29;20059;-59
2023/05/13 05:14:04;;;;;;;18.00;11.57;;;;;;;9.94;100.00;93812.78;4801527;29;20409;-60
2023/05/13 05:16:30;;;;;;;20.90;11.80;;;;;;;9.97;100.00;93811.97;4802164;29;20053;-59
2023/05/13 05:18:58;;;;;;;19.92;12.40;;;;;;;9.50;100.00;93815.34;4785387;29;20043;-59
2023/05/13 05:21:25;;;;;;;20.80;13.35;;;;;;;9.24;100.00;93819.56;4802029;29;20391;-61
2023/05/13 05:23:51;;;;;;;21.77;12.90;;;;;;;9.26;100.00;93819.19;4801387;29;20500;-59
2023/05/13 05:26:18;;;;;;;20.60;12.63;;;;;;;9.48;100.00;93825.16;4802177;29;20058;-59
2023/05/13 05:28:45;;;;;;;19.70;12.27;;;;;;;9.25;100.00;93826.59;4785439;29;20080;-62
2023/05/13 05:31:12;;;;;;;23.35;14.40;;;;;;;8.91;100.00;93837.53;4802239;29;20485;-59
2023/05/13 05:33:39;;;;;;;20.73;13.05;;;;;;;9.10;100.00;93826.00;4790298;29;20123;-59
2023/05/13 05:36:07;;;;;;;17.92;11.63;;;;;;;9.22;100.00;93837.59;4800753;29;20409;-61
2023/05/13 05:38:33;;;;;;;24.60;12.77;;;;;;;9.11;100.00;93830.25;4787675;29;20053;-61
2023/05/13 05:41:00;;;;;;;19.23;11.43;;;;;;;9.20;100.00;93835.28;4801207;29;20047;-60
2023/05/13 05:43:27;;;;;;;17.13;11.52;;;;;;;9.07;100.00;93829.53;4801559;29;20454;-59
2023/05/13 05:45:53;;;;;;;17.33;10.65;;;;;;;8.94;100.00;93828.50;4801189;29;20054;-59
2023/05/13 05:48:20;;;;;;;17.88;11.20;;;;;;;9.21;100.00;93828.59;4801720;29;20046;-59
2023/05/13 05:50:47;;;;;;;15.90;10.13;;;;;;;9.26;100.00;93838.34;4801183;29;20050;-61
2023/05/13 05:53:14;;;;;;;15.55;10.07;;;;;;;9.48;100.00;93834.16;4801566;29;20055;-60
2023/05/13 05:55:41;;;;;;;14.35;10.00;;;;;;;9.77;100.00;93833.78;4801168;29;20059;-60
2023/05/13 05:58:09;;;;;;;13.90;9.30;;;;;;;9.90;100.00;93836.72;4801596;29;20059;-62
2023/05/13 06:00:35;;;;;;;12.63;8.80;;;;;;;10.09;100.00;93825.09;4784121;29;20046;-59
2023/05/13 06:03:03;;;;;;;13.93;8.87;;;;;;;10.36;100.00;93829.81;4801675;29;20465;-59
2023/05/13 06:05:30;;;;;;;12.35;8.77;;;;;;;10.54;100.00;93826.78;4771077;29;20408;-60
2023/05/13 06:07:57;;;;;;;17.92;11.15;;;;;;;9.98;100.00;93827.25;4801414;29;20105;-62
2023/05/13 06:10:23;;;;;;;13.55;9.40;;;;;;;9.84;100.00;93830.94;4801878;29;20115;-59
2023/05/13 06:12:50;;;;;;;13.70;10.00;;;;;;;9.32;100.00;93834.72;4801279;29;20051;-59
2023/05/13 06:15:17;;;;;;;13.57;8.80;;;;;;;10.10;100.00;93832.16;4801929;29;20103;-59
2023/05/13 06:17:43;;;;;;;13.23;9.13;;;;;;;10.58;100.00;93839.25;4785122;29;20046;-59
2023/05/13 06:20:11;;;;;;;12.82;8.90;;;;;;;10.32;100.00;93834.56;4801452;29;20046;-60
2023/05/13 06:22:39;;;;;;;13.18;8.45;;;;;;;10.91;100.00;93836.72;4801592;29;20081;-60
2023/05/13 06:25:06;;;;;;;11.73;7.85;;;;;;;11.09;100.00;93836.41;4800903;29;20043;-60
2023/05/13 06:27:33;;;;;;;12.10;8.10;;;;;;;11.03;100.00;93832.59;4801919;29;20114;-63
2023/05/13 06:30:00;;;;;;;12.13;8.73;;;;;;;10.96;100.00;93836.22;4801517;29;20054;-62
2023/05/13 06:32:26;;;;;;;12.80;8.60;;;;;;;11.03;100.00;93837.31;4785447;29;20059;-59
2023/05/13 06:34:53;;;;;;;13.05;8.70;;;;;;;10.54;100.00;93844.03;4800819;29;20063;-60
2023/05/13 06:37:21;;;;;;;11.35;7.95;;;;;;;10.76;100.00;93841.69;4801466;29;20136;-60
2023/05/13 06:39:48;;;;;;;10.47;7.20;;;;;;;10.96;100.00;93840.97;4785132;29;20065;-59
2023/05/13 06:42:15;;;;;;;12.05;8.48;;;;;;;10.85;100.00;93843.13;4801528;29;20371;-61
2023/05/13 06:44:41;;;;;;;11.43;8.07;;;;;;;10.76;100.00;93840.91;4800958;29;20078;-59
2023/05/13 06:47:13;;;;;;;10.95;7.45;;;;;;;10.96;100.00;93843.69;4801363;29;20050;-59
2023/05/13 06:49:41;;;;;;;11.95;7.95;;;;;;;10.96;100.00;93844.47;4796108;29;20059;-63
2023/05/13 06:52:10;;;;;;;12.97;7.73;;;;;;;10.72;100.00;93837.44;4800583;29;20685;-63
2023/05/13 06:54:37;;;;;;;12.73;7.28;;;;;;;11.05;100.00;93841.19;4801844;29;20622;-61
2023/05/13 06:57:05;;;;;;;10.45;6.88;;;;;;;10.73;100.00;93839.78;4800901;29;20062;-60
2023/05/13 06:59:32;;;;;;;14.18;7.53;;;;;;;11.09;100.00;93839.16;4785648;29;20050;-62
2023/05/13 07:01:59;;;;;;;11.27;7.38;;;;;;;10.87;100.00;93843.50;4801015;29;20058;-59
2023/05/13 07:04:28;;;;;;;9.67;6.53;;;;;;;10.82;100.00;93836.50;4801492;29;20047;-60
2023/05/13 07:06:55;;;;;;;10.50;6.32;;;;;;;11.03;100.00;93837.31;4784609;29;20047;-59
2023/05/13 07:09:22;;;;;;;10.05;6.43;;;;;;;10.96;100.00;93835.47;4801609;29;20046;-59
2023/05/13 07:11:49;;;;;;;9.02;6.45;;;;;;;10.76;100.00;93849.16;4800919;29;20055;-59
2023/05/13 07:14:16;;;;;;;9.25;6.30;;;;;;;10.90;100.00;93848.13;4785662;29;20053;-60
2023/05/13 07:16:43;;;;;;;8.70;5.93;;;;;;;10.76;100.00;93852.66;4800615;29;20110;-60
2023/05/13 07:19:09;;;;;;;9.13;6.30;;;;;;;10.17;100.00;93850.44;4801347;29;20050;-59
2023/05/13 07:21:37;;;;;;;8.38;5.97;;;;;;;10.32;100.00;93848.28;4801305;29;20069;-60
2023/05/13 07:24:04;;;;;;;9.55;5.60;;;;;;;10.23;100.00;93854.28;4800916;29;20073;-61
2023/05/13 07:26:31;;;;;;;8.73;5.80;;;;;;;10.34;100.00;93862.38;4801273;29;20042;-60
2023/05/13 07:28:58;;;;;;;7.80;5.70;;;;;;;10.79;100.00;93853.81;4800423;29;20055;-60
2023/05/13 07:31:25;;;;;;;8.10;5.50;;;;;;;10.77;100.00;93856.97;4801058;29;20051;-62
2023/05/13 07:33:52;;;;;;;8.75;5.60;;;;;;;10.24;100.00;93855.84;4802958;29;20065;-62
2023/05/13 07:36:19;;;;;;;8.25;5.35;;;;;;;10.37;100.00;93854.09;4804719;29;20049;-59
2023/05/13 07:38:45;;;;;;;7.80;5.30;;;;;;;10.48;100.00;93847.66;4787766;29;20043;-59
2023/05/13 07:41:12;;;;;;;7.00;5.60;;;;;;;10.29;100.00;93855.34;4804642;29;20065;-59
2023/05/13 07:43:39;;;;;;;8.85;5.45;;;;;;;10.95;100.00;93847.66;4804214;29;20046;-60
2023/05/13 07:46:06;;;;;;;7.20;5.18;;;;;;;10.92;100.00;93857.50;4803552;29;20051;-59
2023/05/13 07:48:33;;;;;;;6.75;5.25;;;;;;;10.72;100.00;93854.69;4803815;29;20047;-59
2023/05/13 07:51:00;;;;;;;8.32;5.30;;;;;;;10.92;100.00;93846.50;4803998;29;20051;-59
2023/05/13 07:53:27;;;;;;;7.03;5.30;;;;;;;10.56;100.00;93849.88;4804041;29;20054;-61
2023/05/13 07:55:53;;;;;;;9.13;5.22;;;;;;;10.49;100.00;93852.72;4787608;29;20043;-60
2023/05/13 07:58:20;;;;;;;7.40;5.30;;;;;;;10.50;100.00;93848.81;4804305;29;20059;-59
2023/05/13 08:00:48;;;;;;;7.00;5.25;;;;;;;10.29;100.00;93851.84;4787667;29;20058;-63
2023/05/13 08:03:15;;;;;;;7.85;5.63;;;;;;;10.38;100.00;93850.16;4804232;29;20065;-59
2023/05/13 08:05:42;;;;;;;6.23;4.60;;;;;;;10.88;100.00;93853.25;4803231;29;20103;-59
2023/05/13 08:08:09;;;;;;;6.55;4.80;;;;;;;10.78;100.00;93852.25;4788139;29;20076;-59
2023/05/13 08:10:36;;;;;;;6.80;4.90;;;;;;;10.49;100.00;93847.25;4804026;29;20058;-62
2023/05/13 08:13:02;;;;;;;6.32;4.50;;;;;;;10.35;100.00;93850.97;4787132;29;20055;-61
2023/05/13 08:15:29;;;;;;;5.88;4.47;;;;;;;10.44;100.00;93849.69;4803580;29;20073;-60
2023/05/13 08:17:56;;;;;;;6.50;4.77;;;;;;;10.82;100.00;93852.19;4803358;29;20055;-61
2023/05/13 08:20:28;;;;;;;6.43;4.82;;;;;;;10.94;100.00;93859.81;4803467;29;20451;-59
2023/05/13 08:22:57;;;;;;;6.57;4.80;;;;;;;11.05;100.00;93857.69;4803384;29;20057;-62
2023/05/13 08:25:24;;;;;;;6.97;4.97;;;;;;;10.39;100.00;93857.19;4803563;29;20054;-63
2023/05/13 08:27:50;;;;;;;6.82;5.50;;;;;;;10.58;100.00;93861.22;4803475;29;20126;-59
2023/05/13 08:30:17;;;;;;;6.97;5.20;;;;;;;10.93;100.00;93858.28;4803656;29;20070;-59
2023/05/13 08:32:44;;;;;;;8.35;5.28;;;;;;;11.40;100.00;93856.22;4803047;29;20151;-60
2023/05/13 08:35:11;;;;;;;9.10;5.40;;;;;;;11.64;100.00;93852.63;4803296;29;20043;-63
2023/05/13 08:37:38;;;;;;;6.95;5.10;;;;;;;11.72;100.00;93852.06;4803424;29;20051;-61
2023/05/13 08:40:05;;;;;;;7.40;4.90;;;;;;;11.86;100.00;93856.47;4802880;29;20047;-63
2023/05/13 08:42:32;;;;;;;7.73;4.97;;;;;;;11.30;100.00;93856.44;4803555;29;20452;-59
2023/05/13 08:45:04;;;;;;;6.88;4.80;;;;;;;11.84;100.00;93864.38;4801743;29;20099;-60
2023/05/13 08:47:36;;;;;;;5.78;4.45;;;;;;;11.83;100.00;93862.84;4803197;29;20046;-60
2023/05/13 08:50:05;;;;;;;5.60;4.40;;;;;;;11.28;100.00;93864.31;4802898;29;20390;-61
2023/05/13 08:52:32;;;;;;;4.72;3.63;;;;;;;12.10;100.00;93862.69;4803327;29;20058;-60
2023/05/13 08:55:00;;;;;;;5.63;4.20;;;;;;;12.43;100.00;93862.72;4802274;29;20119;-60
2023/05/13 08:57:27;;;;;;;6.13;4.10;;;;;;;12.12;100.00;93868.53;4803063;29;20479;-61
2023/05/13 08:59:53;;;;;;;5.40;4.18;;;;;;;11.77;100.00;93861.78;4802556;29;20406;-60
2023/05/13 09:02:21;;;;;;;6.10;4.40;;;;;;;11.28;100.00;93869.81;4791137;29;20054;-60
2023/05/13 09:04:52;;;;;;;6.90;4.45;;;;;;;11.84;100.00;93867.13;4802585;29;20055;-61
2023/05/13 09:07:19;;;;;;;5.27;4.03;;;;;;;11.96;100.00;93874.75;4803230;29;20055;-61
2023/05/13 09:09:46;;;;;;;5.80;4.57;;;;;;;11.55;100.00;93875.97;4802585;29;20047;-60
2023/05/13 09:12:43;;;;;;;5.95;4.18;;;;;;;11.76;100.00;93873.97;4802642;29;20382;-60
2023/05/13 09:15:12;;;;;;;6.38;4.63;;;;;;;11.34;100.00;93868.91;4801993;29;20852;-60
2023/05/13 09:17:41;;;;;;;6.13;4.07;;;;;;;12.38;100.00;93872.28;4786584;29;20049;-60
2023/05/13 09:20:13;;;;;;;9.07;6.77;;;;;;;12.43;100.00;93867.47;4801565;29;20943;-60
2023/05/13 09:22:47;;;;;;;7.57;6.00;;;;;;;13.05;100.00;93862.78;4802851;29;20043;-60
2023/05/13 09:25:15;;;;;;;6.13;4.60;;;;;;;12.75;100.00;93872.97;4801801;29;20864;-59
2023/05/13 09:27:45;;;;;;;7.32;5.10;;;;;;;11.78;100.00;93869.59;4802029;29;20055;-63
2023/05/13 09:30:12;;;;;;;7.47;5.95;;;;;;;12.22;100.00;93869.50;4786267;29;20046;-60
2023/05/13 09:32:41;;;;;;;6.57;5.00;;;;;;;11.85;100.00;93873.41;4802493;29;20448;-62
2023/05/13 09:35:15;;;;;;;6.97;5.43;;;;;;;12.19;100.00;93870.34;4801454;29;20253;-61
2023/05/13 09:37:46;;;;;;;6.35;5.07;;;;;;;12.43;100.00;93867.47;4801661;29;20054;-60
2023/05/13 09:40:16;;;;;;;8.40;6.25;;;;;;;11.24;100.00;93872.63;4801887;29;20462;-60
2023/05/13 09:42:44;;;;;;;7.32;5.68;;;;;;;10.98;100.00;93874.25;4801790;29;20066;-60
2023/05/13 09:45:13;;;;;;;8.43;6.40;;;;;;;12.15;100.00;93873.19;4802358;29;20532;-61
2023/05/13 09:47:40;;;;;;;13.45;9.95;;;;;;;12.45;100.00;93871.31;4802185;29;20050;-61
2023/05/13 09:50:10;;;;;;;7.28;5.60;;;;;;;12.53;100.00;93867.19;4801272;29;20571;-60
2023/05/13 09:52:37;;;;;;;6.82;5.40;;;;;;;12.10;100.00;93881.16;4802094;29;20090;-60
2023/05/13 09:55:08;;;;;;;7.10;4.70;;;;;;;12.30;100.00;93876.38;4801389;29;20063;-60
2023/05/13 09:57:35;;;;;;;8.10;6.00;;;;;;;12.28;100.00;93867.78;4802230;29;20050;-61
2023/05/13 10:00:04;;;;;;;7.70;6.28;;;;;;;12.09;100.00;93876.84;4801319;29;20054;-60
2023/05/13 10:02:32;;;;;;;6.30;5.35;;;;;;;11.86;100.00;93872.97;4801884;29;20141;-60
2023/05/13 10:04:59;;;;;;;6.65;4.70;;;;;;;13.44;100.00;93876.78;4801335;29;20135;-60
2023/05/13 10:07:27;;;;;;;6.07;5.47;;;;;;;11.55;100.00;93878.72;4801996;29;20086;-60
2023/05/13 10:09:57;;;;;;;6.73;5.40;;;;;;;11.71;100.00;93882.72;4785062;29;20051;-59
2023/05/13 10:12:25;;;;;;;7.38;6.25;;;;;;;11.75;100.00;93875.16;4802279;29;20050;-62
2023/05/13 10:14:53;;;;;;;7.85;5.80;;;;;;;12.31;100.00;93886.19;4801340;29;20059;-59
2023/05/13 10:17:22;;;;;;;6.50;5.63;;;;;;;12.06;100.00;93880.47;4790141;29;20511;-59
2023/05/13 10:19:51;;;;;;;17.10;8.73;;;;;;;12.19;100.00;93886.84;4800860;29;20059;-59
2023/05/13 10:22:29;;;;;;;6.63;4.83;;;;;;;13.26;100.00;93879.97;4801746;29;20046;-59
2023/05/13 10:24:58;;;;;;;6.47;4.70;;;;;;;13.26;100.00;93879.97;4785080;29;20066;-62
2023/05/13 10:27:31;;;;;;;5.90;3.90;;;;;;;14.04;100.00;93873.53;4802003;29;20059;-59
2023/05/13 10:29:59;;;;;;;7.05;4.90;;;;;;;12.54;100.00;93882.53;4800929;29;20082;-63
2023/05/13 10:32:30;;;;;;;5.78;4.55;;;;;;;12.88;100.00;93875.06;4801772;29;20501;-59
2023/05/13 10:35:06;;;;;;;5.10;3.90;;;;;;;13.17;100.00;93884.13;4801208;29;20050;-60
2023/05/13 10:38:03;;;;;;;5.40;4.22;;;;;;;13.82;100.00;93885.19;4801598;29;20055;-60
2023/05/13 10:40:51;;;;;;;10.50;6.45;;;;;;;12.64;100.00;93888.22;4800243;29;20055;-59
2023/05/13 10:43:20;;;;;;;6.25;4.88;;;;;;;13.17;100.00;93889.63;4800231;29;20961;-59
2023/05/13 10:45:55;;;;;;;14.63;11.70;;;;;;;13.41;100.00;93894.19;4800871;29;20050;-59
2023/05/13 10:48:22;;;;;;;15.03;11.43;;;;;;;13.52;100.00;93898.22;4796545;29;20409;-61
2023/05/13 10:50:54;;;;;;;7.10;5.80;;;;;;;13.43;100.00;93889.78;4801030;29;20058;-61
2023/05/13 10:53:34;;;;;;;6.30;5.00;;;;;;;12.77;100.00;93889.06;4801141;29;20061;-59
2023/05/13 10:56:06;;;;;;;6.63;5.10;;;;;;;13.33;100.00;93882.59;4800861;29;20058;-61
2023/05/13 10:58:38;;;;;;;7.18;4.78;;;;;;;12.95;100.00;93889.41;4801412;29;20051;-60
2023/05/13 11:01:12;;;;;;;14.00;9.90;;;;;;;12.86;100.00;93902.22;4801023;29;20054;-59
2023/05/13 11:03:40;;;;;;;9.48;7.80;;;;;;;12.61;100.00;93902.81;4801222;29;20055;-61
2023/05/13 11:06:14;;;;;;;7.20;5.05;;;;;;;12.45;100.00;93893.34;4800338;29;20854;-59
2023/05/13 11:08:44;;;;;;;6.70;4.95;;;;;;;12.78;100.00;93894.16;4803395;29;20055;-59
2023/05/13 11:11:20;;;;;;;13.48;9.60;;;;;;;12.51;100.00;93899.13;4804082;29;21499;-62
2023/05/13 11:14:22;;;;;;;15.73;10.37;;;;;;;12.62;100.00;93901.63;4804320;29;20062;-59
2023/05/13 11:17:00;;;;;;;17.33;11.75;;;;;;;12.77;100.00;93892.59;4787920;29;20051;-59
2023/05/13 11:19:32;;;;;;;8.98;5.90;;;;;;;12.83;100.00;93901.09;4804148;29;20058;-59
2023/05/13 11:22:09;;;;;;;7.95;6.03;;;;;;;12.82;100.00;93896.03;4803913;29;20115;-59
2023/05/13 11:24:35;;;;;;;7.00;5.30;;;;;;;12.46;100.00;93900.41;4804615;29;20458;-61
2023/05/13 11:27:14;;;;;;;7.63;5.37;;;;;;;12.35;100.00;93903.41;4804015;29;20072;-62
2023/05/13 11:29:51;;;;;;;7.85;5.70;;;;;;;12.71;100.00;93897.06;4803934;29;20080;-60